PWSweather.com
Personal Weather Stations
Station Observations
BREAKEY01
Lévis, Breakeyville, QC G6z 7G7

LévisBreakeyville, QC G6z 7G7

Lat: 46.681, Lon: -71.224

Elevation: 328

Station Type: Davis Vantage Pro2

http://www.meteobreakey.com

Latest ConditionsUpdated 2:07:03 PM EDT Saturday, Aug 1, 2015
Currently Today's Max Today's Min Today's Average
Temperature 65.7°F18.7°C 71.4°F21.9°C 59.5°F15.3°C 63.9°F17.7°C
Dew Point 62.6°F17.0°C 63.7°F17.6°C 57.9°F14.4°C 60.7°F15.9°C
Winds 2.0 mph NW3.2 kmh NW 6.0 mph S9.7 kmh S - 2.4 mph 3.9 kmh
Wind Gusts 0.9 mph1.4 kmh 11.0 mph17.7 kmh - -
Humidity 90% 95% 71% 90%
Pressure 29.63 in1003.4 mb 29.68 in1005.1 mb 29.62 in1003.0 mb -
Precipitation - 0.09 in2.3 mm - -
Hour Temp Dew Point Humidity Winds Wind Gusts Pressure Precip Precip Rate Daily Precip Total
02:07 PM 65.7°F18.7°C 62.6°F17.0°C 90% 2.0 mph NW3.2 kmh NW 0.9 mph1.4 kmh 29.63 in1003.4 mb - 0.36 in9.1 mm 0.09 in2.3 mm
02:02 PM 66.0°F18.9°C 62.6°F17.0°C 89% 0.9 mph N1.4 kmh N 4.0 mph6.4 kmh 29.64 in1003.7 mb - 0.46 in11.7 mm 0.06 in1.5 mm
01:57 PM 66.4°F19.1°C 63.0°F17.2°C 89% 2.0 mph WSW3.2 kmh WSW 4.0 mph6.4 kmh 29.63 in1003.4 mb - 0.31 in7.9 mm 0.04 in1.0 mm
01:52 PM 66.6°F19.2°C 63.1°F17.3°C 89% 2.0 mph SW3.2 kmh SW -- 29.63 in1003.4 mb - 0.00 in0.0 mm 0.02 in0.5 mm
01:47 PM 66.7°F19.3°C 63.3°F17.4°C 89% 2.0 mph WSW3.2 kmh WSW -- 29.63 in1003.4 mb - 0.00 in0.0 mm 0.02 in0.5 mm
01:42 PM 66.7°F19.3°C 63.3°F17.4°C 89% 2.0 mph W3.2 kmh W 4.0 mph6.4 kmh 29.63 in1003.4 mb - 0.00 in0.0 mm 0.02 in0.5 mm
01:37 PM 66.9°F19.4°C 63.3°F17.4°C 88% 2.0 mph SW3.2 kmh SW 2.9 mph4.7 kmh 29.64 in1003.7 mb - 0.00 in0.0 mm 0.02 in0.5 mm
01:32 PM 67.3°F19.6°C 63.7°F17.6°C 88% 2.0 mph SW3.2 kmh SW -- 29.63 in1003.4 mb - 0.00 in0.0 mm 0.02 in0.5 mm
01:27 PM 66.9°F19.4°C 63.3°F17.4°C 88% 2.9 mph SW4.7 kmh SW 2.9 mph4.7 kmh 29.63 in1003.4 mb - 0.00 in0.0 mm 0.02 in0.5 mm
01:22 PM 66.9°F19.4°C 63.0°F17.2°C 87% 2.9 mph SSW4.7 kmh SSW 4.0 mph6.4 kmh 29.63 in1003.4 mb - 0.03 in0.8 mm 0.02 in0.5 mm
01:17 PM 66.9°F19.4°C 63.3°F17.4°C 88% 2.9 mph WSW4.7 kmh WSW 2.9 mph4.7 kmh 29.63 in1003.4 mb - 0.05 in1.3 mm 0.02 in0.5 mm
01:12 PM 67.6°F19.8°C 61.9°F16.6°C 82% 4.9 mph WSW7.9 kmh WSW 2.0 mph3.2 kmh 29.62 in1003.0 mb - 0.10 in2.5 mm 0.02 in0.5 mm
01:07 PM 69.1°F20.6°C 62.6°F17.0°C 80% 6.0 mph WSW9.7 kmh WSW 10.1 mph16.3 kmh 29.63 in1003.4 mb - 0.17 in4.3 mm 0.17 in4.3 mm
01:02 PM 69.8°F21.0°C 62.2°F16.8°C 77% 4.9 mph SW7.9 kmh SW 6.0 mph9.7 kmh 29.63 in1003.4 mb - 0.00 in0.0 mm 0.00 in0.0 mm
12:57 PM 70.2°F21.2°C 61.2°F16.2°C 73% 4.9 mph WSW7.9 kmh WSW 6.9 mph11.1 kmh 29.62 in1003.0 mb - 0.00 in0.0 mm 0.00 in0.0 mm
12:52 PM 70.5°F21.4°C 61.0°F16.1°C 72% 4.9 mph WSW7.9 kmh WSW 8.9 mph14.3 kmh 29.63 in1003.4 mb - 0.00 in0.0 mm 0.00 in0.0 mm
12:47 PM 71.1°F21.7°C 61.2°F16.2°C 71% 4.9 mph WSW7.9 kmh WSW 8.9 mph14.3 kmh 29.63 in1003.4 mb - 0.00 in0.0 mm 0.00 in0.0 mm
12:42 PM 71.2°F21.8°C 61.3°F16.3°C 71% 4.9 mph SW7.9 kmh SW 2.9 mph4.7 kmh 29.63 in1003.4 mb - 0.00 in0.0 mm 0.00 in0.0 mm
12:37 PM 71.4°F21.9°C 61.5°F16.4°C 71% 4.9 mph WSW7.9 kmh WSW 4.0 mph6.4 kmh 29.63 in1003.4 mb - 0.00 in0.0 mm 0.00 in0.0 mm
12:32 PM 71.2°F21.8°C 62.6°F17.0°C 74% 4.9 mph WSW7.9 kmh WSW 4.9 mph7.9 kmh 29.63 in1003.4 mb - 0.00 in0.0 mm 0.00 in0.0 mm
12:27 PM 71.2°F21.8°C 63.7°F17.6°C 77% 4.9 mph WSW7.9 kmh WSW 4.9 mph7.9 kmh 29.63 in1003.4 mb - 0.00 in0.0 mm 0.00 in0.0 mm
12:22 PM 70.7°F21.5°C 62.8°F17.1°C 76% 4.0 mph SW6.4 kmh SW 2.9 mph4.7 kmh 29.64 in1003.7 mb - 0.00 in0.0 mm 0.00 in0.0 mm
12:17 PM 70.0°F21.1°C 62.8°F17.1°C 78% 4.0 mph SW6.4 kmh SW 6.0 mph9.7 kmh 29.63 in1003.4 mb - 0.00 in0.0 mm 0.00 in0.0 mm
12:12 PM 70.2°F21.2°C 63.0°F17.2°C 78% 4.9 mph SW7.9 kmh SW 2.0 mph3.2 kmh 29.64 in1003.7 mb - 0.00 in0.0 mm 0.00 in0.0 mm
12:07 PM 70.7°F21.5°C 62.8°F17.1°C 76% 4.9 mph W7.9 kmh W 11.0 mph17.7 kmh 29.64 in1003.7 mb - 0.00 in0.0 mm 0.00 in0.0 mm
12:02 PM 71.1°F21.7°C 63.1°F17.3°C 76% 6.0 mph S9.7 kmh S 6.0 mph9.7 kmh 29.64 in1003.7 mb - 0.00 in0.0 mm 0.00 in0.0 mm
11:57 AM 71.1°F21.7°C 62.4°F16.9°C 74% 6.0 mph SW9.7 kmh SW 8.9 mph14.3 kmh 29.65 in1004.1 mb - 0.00 in0.0 mm 0.00 in0.0 mm
11:52 AM 71.1°F21.7°C 63.1°F17.3°C 76% 4.0 mph SW6.4 kmh SW 2.9 mph4.7 kmh 29.65 in1004.1 mb - 0.00 in0.0 mm 0.00 in0.0 mm
11:47 AM 70.7°F21.5°C 62.4°F16.9°C 75% 4.0 mph SSW6.4 kmh SSW 2.9 mph4.7 kmh 29.65 in1004.1 mb - 0.00 in0.0 mm 0.00 in0.0 mm
11:42 AM 69.4°F20.8°C 62.6°F17.0°C 79% 4.0 mph SSW6.4 kmh SSW 4.0 mph6.4 kmh 29.65 in1004.1 mb - 0.00 in0.0 mm 0.00 in0.0 mm
11:37 AM 68.7°F20.4°C 61.9°F16.6°C 79% 4.0 mph S6.4 kmh S 0.9 mph1.4 kmh 29.65 in1004.1 mb - 0.00 in0.0 mm 0.00 in0.0 mm
11:32 AM 68.7°F20.4°C 61.9°F16.6°C 79% 4.9 mph WSW7.9 kmh WSW 0.9 mph1.4 kmh 29.65 in1004.1 mb - 0.00 in0.0 mm 0.00 in0.0 mm
11:27 AM 68.5°F20.3°C 62.1°F16.7°C 80% 4.9 mph WSW7.9 kmh WSW 4.9 mph7.9 kmh 29.65 in1004.1 mb - 0.00 in0.0 mm 0.00 in0.0 mm
11:22 AM 68.5°F20.3°C 62.8°F17.1°C 82% 4.0 mph SW6.4 kmh SW 4.9 mph7.9 kmh 29.65 in1004.1 mb - 0.00 in0.0 mm 0.00 in0.0 mm
11:17 AM 68.5°F20.3°C 62.8°F17.1°C 82% 4.0 mph SW6.4 kmh SW 2.9 mph4.7 kmh 29.65 in1004.1 mb - 0.00 in0.0 mm 0.00 in0.0 mm
11:12 AM 67.6°F19.8°C 63.0°F17.2°C 85% 2.9 mph SW4.7 kmh SW 2.9 mph4.7 kmh 29.65 in1004.1 mb - 0.00 in0.0 mm 0.00 in0.0 mm
11:07 AM 66.4°F19.1°C 62.8°F17.1°C 88% 2.9 mph SW4.7 kmh SW 2.0 mph3.2 kmh 29.65 in1004.1 mb - 0.00 in0.0 mm 0.00 in0.0 mm
11:02 AM 65.7°F18.7°C 62.1°F16.7°C 88% 2.9 mph WSW4.7 kmh WSW 4.0 mph6.4 kmh 29.65 in1004.1 mb - 0.00 in0.0 mm 0.00 in0.0 mm
10:57 AM 65.1°F18.4°C 61.5°F16.4°C 88% 2.9 mph SW4.7 kmh SW 2.9 mph4.7 kmh 29.65 in1004.1 mb - 0.00 in0.0 mm 0.00 in0.0 mm
10:52 AM 65.1°F18.4°C 61.9°F16.6°C 89% 4.0 mph W6.4 kmh W 6.0 mph9.7 kmh 29.65 in1004.1 mb - 0.00 in0.0 mm 0.00 in0.0 mm
10:47 AM 64.9°F18.3°C 61.7°F16.5°C 89% 2.9 mph WSW4.7 kmh WSW 4.9 mph7.9 kmh 29.65 in1004.1 mb - 0.00 in0.0 mm 0.00 in0.0 mm
10:42 AM 64.8°F18.2°C 61.5°F16.4°C 89% 4.0 mph SW6.4 kmh SW 2.0 mph3.2 kmh 29.65 in1004.1 mb - 0.00 in0.0 mm 0.00 in0.0 mm
10:37 AM 64.8°F18.2°C 61.5°F16.4°C 89% 2.9 mph WSW4.7 kmh WSW 4.9 mph7.9 kmh 29.65 in1004.1 mb - 0.00 in0.0 mm 0.00 in0.0 mm
10:32 AM 64.8°F18.2°C 61.5°F16.4°C 89% 2.0 mph WSW3.2 kmh WSW 2.9 mph4.7 kmh 29.65 in1004.1 mb - 0.00 in0.0 mm 0.00 in0.0 mm
10:27 AM 64.8°F18.2°C 61.5°F16.4°C 89% 0.9 mph WSW1.4 kmh WSW 0.9 mph1.4 kmh 29.65 in1004.1 mb - 0.00 in0.0 mm 0.00 in0.0 mm
10:22 AM 64.9°F18.3°C 61.3°F16.3°C 88% 0.9 mph W1.4 kmh W 2.0 mph3.2 kmh 29.65 in1004.1 mb - 0.00 in0.0 mm 0.00 in0.0 mm
10:17 AM 64.9°F18.3°C 61.3°F16.3°C 88% 2.0 mph WNW3.2 kmh WNW 2.0 mph3.2 kmh 29.65 in1004.1 mb - 0.00 in0.0 mm 0.00 in0.0 mm
10:12 AM 65.1°F18.4°C 61.5°F16.4°C 88% 2.0 mph W3.2 kmh W 2.0 mph3.2 kmh 29.65 in1004.1 mb - 0.00 in0.0 mm 0.00 in0.0 mm
10:07 AM 65.1°F18.4°C 61.5°F16.4°C 88% 0.9 mph WSW1.4 kmh WSW -- 29.65 in1004.1 mb - 0.00 in0.0 mm 0.00 in0.0 mm
10:02 AM 65.3°F18.5°C 62.1°F16.7°C 89% 0.9 mph WSW1.4 kmh WSW 0.9 mph1.4 kmh 29.65 in1004.1 mb - 0.00 in0.0 mm 0.00 in0.0 mm
09:57 AM 65.3°F18.5°C 61.7°F16.5°C 88% 0.9 mph WSW1.4 kmh WSW -- 29.65 in1004.1 mb - 0.00 in0.0 mm 0.00 in0.0 mm
09:52 AM 65.3°F18.5°C 61.7°F16.5°C 88% 2.0 mph WSW3.2 kmh WSW 2.0 mph3.2 kmh 29.65 in1004.1 mb - 0.00 in0.0 mm 0.00 in0.0 mm
09:47 AM 65.3°F18.5°C 61.7°F16.5°C 88% 0.9 mph SW1.4 kmh SW 0.9 mph1.4 kmh 29.65 in1004.1 mb - 0.00 in0.0 mm 0.00 in0.0 mm
09:42 AM 65.5°F18.6°C 61.9°F16.6°C 88% 0.9 mph WSW1.4 kmh WSW 0.9 mph1.4 kmh 29.65 in1004.1 mb - 0.00 in0.0 mm 0.00 in0.0 mm
09:37 AM 65.5°F18.6°C 61.9°F16.6°C 88% 0.9 mph W1.4 kmh W 2.0 mph3.2 kmh 29.65 in1004.1 mb - 0.00 in0.0 mm 0.00 in0.0 mm
09:32 AM 65.5°F18.6°C 61.9°F16.6°C 88% 0.9 mph WSW1.4 kmh WSW 0.9 mph1.4 kmh 29.65 in1004.1 mb - 0.00 in0.0 mm 0.00 in0.0 mm
09:27 AM 65.1°F18.4°C 61.5°F16.4°C 88% 0.9 mph W1.4 kmh W -- 29.65 in1004.1 mb - 0.00 in0.0 mm 0.00 in0.0 mm
09:22 AM 64.9°F18.3°C 61.3°F16.3°C 88% 0.9 mph WSW1.4 kmh WSW 2.9 mph4.7 kmh 29.65 in1004.1 mb - 0.00 in0.0 mm 0.00 in0.0 mm
09:17 AM 64.9°F18.3°C 61.7°F16.5°C 89% 0.9 mph W1.4 kmh W 0.9 mph1.4 kmh 29.65 in1004.1 mb - 0.00 in0.0 mm 0.00 in0.0 mm
09:12 AM 64.8°F18.2°C 61.2°F16.2°C 88% 2.0 mph W3.2 kmh W 0.9 mph1.4 kmh 29.65 in1004.1 mb - 0.00 in0.0 mm 0.00 in0.0 mm
09:07 AM 64.8°F18.2°C 61.2°F16.2°C 88% 2.0 mph W3.2 kmh W 0.9 mph1.4 kmh 29.65 in1004.1 mb - 0.00 in0.0 mm 0.00 in0.0 mm
09:02 AM 64.8°F18.2°C 60.8°F16.0°C 87% 2.9 mph W4.7 kmh W -- 29.66 in1004.4 mb - 0.00 in0.0 mm 0.00 in0.0 mm
08:57 AM 64.9°F18.3°C 61.0°F16.1°C 87% 2.9 mph WSW4.7 kmh WSW 0.9 mph1.4 kmh 29.66 in1004.4 mb - 0.00 in0.0 mm 0.00 in0.0 mm
08:52 AM 64.9°F18.3°C 61.7°F16.5°C 89% 2.9 mph W4.7 kmh W 2.9 mph4.7 kmh 29.65 in1004.1 mb - 0.00 in0.0 mm 0.00 in0.0 mm
08:47 AM 64.8°F18.2°C 61.5°F16.4°C 89% 2.9 mph WSW4.7 kmh WSW 2.0 mph3.2 kmh 29.65 in1004.1 mb - 0.00 in0.0 mm 0.00 in0.0 mm
08:42 AM 64.6°F18.1°C 61.5°F16.4°C 90% 2.9 mph WSW4.7 kmh WSW 2.9 mph4.7 kmh 29.65 in1004.1 mb - 0.00 in0.0 mm 0.00 in0.0 mm
08:37 AM 64.4°F18.0°C 61.3°F16.3°C 90% 2.0 mph WSW3.2 kmh WSW 8.9 mph14.3 kmh 29.65 in1004.1 mb - 0.00 in0.0 mm 0.00 in0.0 mm
08:32 AM 64.2°F17.9°C 61.2°F16.2°C 90% 2.0 mph SW3.2 kmh SW 2.9 mph4.7 kmh 29.65 in1004.1 mb - 0.00 in0.0 mm 0.00 in0.0 mm
08:27 AM 64.2°F17.9°C 61.0°F16.1°C 89% 2.9 mph SSW4.7 kmh SSW 4.9 mph7.9 kmh 29.66 in1004.4 mb - 0.00 in0.0 mm 0.00 in0.0 mm
08:22 AM 64.0°F17.8°C 60.8°F16.0°C 89% 2.9 mph WSW4.7 kmh WSW 2.9 mph4.7 kmh 29.66 in1004.4 mb - 0.00 in0.0 mm 0.00 in0.0 mm
08:17 AM 64.2°F17.9°C 61.2°F16.2°C 90% 2.9 mph SW4.7 kmh SW 2.9 mph4.7 kmh 29.67 in1004.7 mb - 0.00 in0.0 mm 0.00 in0.0 mm
08:12 AM 64.0°F17.8°C 61.0°F16.1°C 90% 2.0 mph WSW3.2 kmh WSW 2.9 mph4.7 kmh 29.67 in1004.7 mb - 0.00 in0.0 mm 0.00 in0.0 mm
08:07 AM 63.9°F17.7°C 61.2°F16.2°C 91% 0.9 mph SSW1.4 kmh SSW 0.9 mph1.4 kmh 29.66 in1004.4 mb - 0.00 in0.0 mm 0.00 in0.0 mm
08:02 AM 63.5°F17.5°C 60.4°F15.8°C 90% 2.0 mph SW3.2 kmh SW -- 29.65 in1004.1 mb - 0.00 in0.0 mm 0.00 in0.0 mm
07:57 AM 63.3°F17.4°C 60.6°F15.9°C 91% 0.9 mph SW1.4 kmh SW 0.9 mph1.4 kmh 29.66 in1004.4 mb - 0.00 in0.0 mm 0.00 in0.0 mm
07:52 AM 63.0°F17.2°C 60.6°F15.9°C 92% 0.9 mph SW1.4 kmh SW 2.9 mph4.7 kmh 29.66 in1004.4 mb - 0.00 in0.0 mm 0.00 in0.0 mm
07:47 AM 62.8°F17.1°C 60.4°F15.8°C 92% 0.9 mph W1.4 kmh W 2.9 mph4.7 kmh 29.66 in1004.4 mb - 0.00 in0.0 mm 0.00 in0.0 mm
07:42 AM 62.6°F17.0°C 60.3°F15.7°C 92% 0.9 mph SW1.4 kmh SW -- 29.66 in1004.4 mb - 0.00 in0.0 mm 0.00 in0.0 mm
07:37 AM 62.6°F17.0°C 60.3°F15.7°C 92% 2.0 mph WSW3.2 kmh WSW -- 29.66 in1004.4 mb - 0.00 in0.0 mm 0.00 in0.0 mm
07:32 AM 62.4°F16.9°C 60.4°F15.8°C 93% 0.9 mph WSW1.4 kmh WSW 4.0 mph6.4 kmh 29.66 in1004.4 mb - 0.00 in0.0 mm 0.00 in0.0 mm
07:27 AM 62.2°F16.8°C 60.3°F15.7°C 93% 0.9 mph WSW1.4 kmh WSW 2.0 mph3.2 kmh 29.66 in1004.4 mb - 0.00 in0.0 mm 0.00 in0.0 mm
07:22 AM 62.1°F16.7°C 60.1°F15.6°C 93% 0.9 mph WSW1.4 kmh WSW 2.0 mph3.2 kmh 29.66 in1004.4 mb - 0.00 in0.0 mm 0.00 in0.0 mm
07:17 AM 61.9°F16.6°C 59.9°F15.5°C 93% Calm Calm 0.9 mph1.4 kmh 29.66 in1004.4 mb - 0.00 in0.0 mm 0.00 in0.0 mm
07:12 AM 61.9°F16.6°C 59.9°F15.5°C 93% Calm Calm -- 29.65 in1004.1 mb - 0.00 in0.0 mm 0.00 in0.0 mm
07:07 AM 61.5°F16.4°C 59.5°F15.3°C 93% 2.0 mph S3.2 kmh S -- 29.65 in1004.1 mb - 0.00 in0.0 mm 0.00 in0.0 mm
07:02 AM 61.7°F16.5°C 59.7°F15.4°C 93% 2.9 mph SW4.7 kmh SW 2.0 mph3.2 kmh 29.66 in1004.4 mb - 0.00 in0.0 mm 0.00 in0.0 mm
06:52 AM 61.3°F16.3°C 59.5°F15.3°C 94% 2.9 mph WSW4.7 kmh WSW 4.0 mph6.4 kmh 29.67 in1004.7 mb - 0.00 in0.0 mm 0.00 in0.0 mm
06:47 AM 61.2°F16.2°C 59.4°F15.2°C 94% 2.9 mph WSW4.7 kmh WSW 2.0 mph3.2 kmh 29.66 in1004.4 mb - 0.00 in0.0 mm 0.00 in0.0 mm
06:42 AM 61.2°F16.2°C 59.4°F15.2°C 94% 2.0 mph SW3.2 kmh SW 2.9 mph4.7 kmh 29.66 in1004.4 mb - 0.00 in0.0 mm 0.00 in0.0 mm
06:37 AM 61.2°F16.2°C 59.7°F15.4°C 95% 2.0 mph SSW3.2 kmh SSW 2.9 mph4.7 kmh 29.66 in1004.4 mb - 0.00 in0.0 mm 0.00 in0.0 mm
06:32 AM 61.0°F16.1°C 59.5°F15.3°C 95% 2.0 mph SW3.2 kmh SW 0.9 mph1.4 kmh 29.66 in1004.4 mb - 0.00 in0.0 mm 0.00 in0.0 mm
06:27 AM 60.6°F15.9°C 59.2°F15.1°C 95% 2.9 mph WSW4.7 kmh WSW 4.0 mph6.4 kmh 29.66 in1004.4 mb - 0.00 in0.0 mm 0.00 in0.0 mm
06:22 AM 60.4°F15.8°C 59.0°F15.0°C 95% 4.0 mph WSW6.4 kmh WSW 0.9 mph1.4 kmh 29.66 in1004.4 mb - 0.00 in0.0 mm 0.00 in0.0 mm
06:17 AM 60.3°F15.7°C 58.8°F14.9°C 95% 4.0 mph SW6.4 kmh SW 4.9 mph7.9 kmh 29.66 in1004.4 mb - 0.00 in0.0 mm 0.00 in0.0 mm
06:12 AM 60.1°F15.6°C 58.6°F14.8°C 95% 2.0 mph WSW3.2 kmh WSW 4.0 mph6.4 kmh 29.65 in1004.1 mb - 0.00 in0.0 mm 0.00 in0.0 mm
06:07 AM 59.7°F15.4°C 58.3°F14.6°C 95% 0.9 mph WSW1.4 kmh WSW 2.0 mph3.2 kmh 29.65 in1004.1 mb - 0.00 in0.0 mm 0.00 in0.0 mm
06:02 AM 59.7°F15.4°C 58.3°F14.6°C 95% 2.0 mph SW3.2 kmh SW 2.0 mph3.2 kmh 29.66 in1004.4 mb - 0.00 in0.0 mm 0.00 in0.0 mm
05:57 AM 59.5°F15.3°C 58.1°F14.5°C 95% 2.0 mph SSW3.2 kmh SSW 2.0 mph3.2 kmh 29.65 in1004.1 mb - 0.00 in0.0 mm 0.00 in0.0 mm
05:52 AM 59.7°F15.4°C 58.3°F14.6°C 95% 2.0 mph S3.2 kmh S 2.9 mph4.7 kmh 29.65 in1004.1 mb - 0.00 in0.0 mm 0.00 in0.0 mm
05:47 AM 59.5°F15.3°C 58.1°F14.5°C 95% 2.0 mph SW3.2 kmh SW 2.0 mph3.2 kmh 29.65 in1004.1 mb - 0.00 in0.0 mm 0.00 in0.0 mm
05:42 AM 59.5°F15.3°C 58.1°F14.5°C 95% 2.0 mph WSW3.2 kmh WSW 0.9 mph1.4 kmh 29.65 in1004.1 mb - 0.00 in0.0 mm 0.00 in0.0 mm
05:37 AM 59.7°F15.4°C 58.3°F14.6°C 95% 2.0 mph WSW3.2 kmh WSW 4.9 mph7.9 kmh 29.65 in1004.1 mb - 0.00 in0.0 mm 0.00 in0.0 mm
05:32 AM 59.7°F15.4°C 57.9°F14.4°C 94% 2.0 mph SSW3.2 kmh SSW 0.9 mph1.4 kmh 29.66 in1004.4 mb - 0.00 in0.0 mm 0.00 in0.0 mm
05:27 AM 60.1°F15.6°C 58.3°F14.6°C 94% 2.0 mph S3.2 kmh S 2.0 mph3.2 kmh 29.65 in1004.1 mb - 0.00 in0.0 mm 0.00 in0.0 mm
05:22 AM 60.3°F15.7°C 58.8°F14.9°C 95% 0.9 mph WSW1.4 kmh WSW 0.9 mph1.4 kmh 29.65 in1004.1 mb - 0.00 in0.0 mm 0.00 in0.0 mm
05:17 AM 60.3°F15.7°C 58.8°F14.9°C 95% 2.0 mph WSW3.2 kmh WSW 2.9 mph4.7 kmh 29.65 in1004.1 mb - 0.00 in0.0 mm 0.00 in0.0 mm
05:12 AM 60.3°F15.7°C 58.8°F14.9°C 95% 2.9 mph WSW4.7 kmh WSW 0.9 mph1.4 kmh 29.65 in1004.1 mb - 0.00 in0.0 mm 0.00 in0.0 mm
05:07 AM 60.3°F15.7°C 58.5°F14.7°C 94% 2.0 mph SW3.2 kmh SW 2.0 mph3.2 kmh 29.65 in1004.1 mb - 0.00 in0.0 mm 0.00 in0.0 mm
05:02 AM 60.4°F15.8°C 58.6°F14.8°C 94% 2.0 mph WSW3.2 kmh WSW 4.9 mph7.9 kmh 29.65 in1004.1 mb - 0.00 in0.0 mm 0.00 in0.0 mm
04:57 AM 60.4°F15.8°C 58.6°F14.8°C 94% 2.0 mph W3.2 kmh W -- 29.65 in1004.1 mb - 0.00 in0.0 mm 0.00 in0.0 mm
04:52 AM 60.4°F15.8°C 58.6°F14.8°C 94% 0.9 mph SSW1.4 kmh SSW 4.0 mph6.4 kmh 29.65 in1004.1 mb - 0.00 in0.0 mm 0.00 in0.0 mm
04:47 AM 60.6°F15.9°C 58.8°F14.9°C 94% 0.9 mph SSW1.4 kmh SSW 2.0 mph3.2 kmh 29.65 in1004.1 mb - 0.00 in0.0 mm 0.00 in0.0 mm
04:42 AM 60.6°F15.9°C 58.8°F14.9°C 94% 2.0 mph SW3.2 kmh SW 0.9 mph1.4 kmh 29.65 in1004.1 mb - 0.00 in0.0 mm 0.00 in0.0 mm
04:37 AM 60.6°F15.9°C 58.8°F14.9°C 94% 2.0 mph SW3.2 kmh SW 2.9 mph4.7 kmh 29.64 in1003.7 mb - 0.00 in0.0 mm 0.00 in0.0 mm
04:32 AM 60.6°F15.9°C 58.8°F14.9°C 94% 2.0 mph SW3.2 kmh SW 2.0 mph3.2 kmh 29.64 in1003.7 mb - 0.00 in0.0 mm 0.00 in0.0 mm
04:27 AM 60.6°F15.9°C 58.8°F14.9°C 94% 2.0 mph WSW3.2 kmh WSW 4.0 mph6.4 kmh 29.64 in1003.7 mb - 0.00 in0.0 mm 0.00 in0.0 mm
04:22 AM 60.8°F16.0°C 59.0°F15.0°C 94% 2.9 mph WSW4.7 kmh WSW 2.0 mph3.2 kmh 29.64 in1003.7 mb - 0.00 in0.0 mm 0.00 in0.0 mm
04:17 AM 60.8°F16.0°C 59.0°F15.0°C 94% 2.9 mph WSW4.7 kmh WSW 2.9 mph4.7 kmh 29.65 in1004.1 mb - 0.00 in0.0 mm 0.00 in0.0 mm
04:12 AM 60.8°F16.0°C 59.0°F15.0°C 94% 2.0 mph SW3.2 kmh SW 4.9 mph7.9 kmh 29.65 in1004.1 mb - 0.00 in0.0 mm 0.00 in0.0 mm
04:07 AM 60.8°F16.0°C 59.0°F15.0°C 94% 2.9 mph SW4.7 kmh SW 2.0 mph3.2 kmh 29.65 in1004.1 mb - 0.00 in0.0 mm 0.00 in0.0 mm
04:02 AM 60.8°F16.0°C 59.4°F15.2°C 95% 4.0 mph WSW6.4 kmh WSW 0.9 mph1.4 kmh 29.65 in1004.1 mb - 0.00 in0.0 mm 0.00 in0.0 mm
03:57 AM 60.6°F15.9°C 58.8°F14.9°C 94% 4.0 mph SW6.4 kmh SW 4.0 mph6.4 kmh 29.65 in1004.1 mb - 0.00 in0.0 mm 0.00 in0.0 mm
03:52 AM 60.6°F15.9°C 58.8°F14.9°C 94% 2.0 mph SW3.2 kmh SW 2.0 mph3.2 kmh 29.65 in1004.1 mb - 0.00 in0.0 mm 0.00 in0.0 mm
03:47 AM 60.4°F15.8°C 58.6°F14.8°C 94% 0.9 mph WSW1.4 kmh WSW 2.9 mph4.7 kmh 29.64 in1003.7 mb - 0.00 in0.0 mm 0.00 in0.0 mm
03:42 AM 60.4°F15.8°C 58.6°F14.8°C 94% 2.0 mph SW3.2 kmh SW 2.0 mph3.2 kmh 29.65 in1004.1 mb - 0.00 in0.0 mm 0.00 in0.0 mm
03:37 AM 60.4°F15.8°C 59.0°F15.0°C 95% 2.0 mph S3.2 kmh S 2.0 mph3.2 kmh 29.65 in1004.1 mb - 0.00 in0.0 mm 0.00 in0.0 mm
03:32 AM 60.4°F15.8°C 58.6°F14.8°C 94% 2.0 mph S3.2 kmh S 2.0 mph3.2 kmh 29.65 in1004.1 mb - 0.00 in0.0 mm 0.00 in0.0 mm
03:27 AM 60.4°F15.8°C 59.0°F15.0°C 95% 2.9 mph SW4.7 kmh SW -- 29.65 in1004.1 mb - 0.00 in0.0 mm 0.00 in0.0 mm
03:22 AM 60.4°F15.8°C 58.6°F14.8°C 94% 2.0 mph S3.2 kmh S 2.0 mph3.2 kmh 29.65 in1004.1 mb - 0.00 in0.0 mm 0.00 in0.0 mm
03:17 AM 60.4°F15.8°C 58.6°F14.8°C 94% 0.9 mph WSW1.4 kmh WSW 2.0 mph3.2 kmh 29.65 in1004.1 mb - 0.00 in0.0 mm 0.00 in0.0 mm
03:12 AM 60.4°F15.8°C 58.6°F14.8°C 94% 0.9 mph SW1.4 kmh SW 2.0 mph3.2 kmh 29.65 in1004.1 mb - 0.00 in0.0 mm 0.00 in0.0 mm
03:07 AM 60.4°F15.8°C 58.6°F14.8°C 94% 0.9 mph SW1.4 kmh SW -- 29.65 in1004.1 mb - 0.00 in0.0 mm 0.00 in0.0 mm
03:02 AM 60.6°F15.9°C 58.8°F14.9°C 94% 0.9 mph SSW1.4 kmh SSW 0.9 mph1.4 kmh 29.65 in1004.1 mb - 0.00 in0.0 mm 0.00 in0.0 mm
02:57 AM 60.6°F15.9°C 58.8°F14.9°C 94% 2.0 mph SSW3.2 kmh SSW -- 29.65 in1004.1 mb - 0.00 in0.0 mm 0.00 in0.0 mm
02:52 AM 60.8°F16.0°C 59.0°F15.0°C 94% 2.0 mph S3.2 kmh S 2.0 mph3.2 kmh 29.65 in1004.1 mb - 0.00 in0.0 mm 0.00 in0.0 mm
02:47 AM 61.0°F16.1°C 59.2°F15.1°C 94% 2.0 mph S3.2 kmh S 2.9 mph4.7 kmh 29.64 in1003.7 mb - 0.00 in0.0 mm 0.00 in0.0 mm
02:42 AM 61.0°F16.1°C 59.2°F15.1°C 94% 2.0 mph S3.2 kmh S 2.0 mph3.2 kmh 29.64 in1003.7 mb - 0.00 in0.0 mm 0.00 in0.0 mm
02:37 AM 61.0°F16.1°C 59.2°F15.1°C 94% 0.9 mph S1.4 kmh S 2.0 mph3.2 kmh 29.65 in1004.1 mb - 0.00 in0.0 mm 0.00 in0.0 mm
02:32 AM 61.0°F16.1°C 59.2°F15.1°C 94% 0.9 mph SW1.4 kmh SW -- 29.65 in1004.1 mb - 0.00 in0.0 mm 0.00 in0.0 mm
02:27 AM 61.0°F16.1°C 59.2°F15.1°C 94% 0.9 mph SW1.4 kmh SW 2.9 mph4.7 kmh 29.65 in1004.1 mb - 0.00 in0.0 mm 0.00 in0.0 mm
02:22 AM 61.2°F16.2°C 59.2°F15.1°C 93% 0.9 mph S1.4 kmh S 0.9 mph1.4 kmh 29.64 in1003.7 mb - 0.00 in0.0 mm 0.00 in0.0 mm
02:17 AM 61.2°F16.2°C 59.2°F15.1°C 93% 0.9 mph S1.4 kmh S -- 29.64 in1003.7 mb - 0.00 in0.0 mm 0.00 in0.0 mm
02:12 AM 61.3°F16.3°C 59.4°F15.2°C 93% Calm Calm 0.9 mph1.4 kmh 29.64 in1003.7 mb - 0.00 in0.0 mm 0.00 in0.0 mm
02:07 AM 61.5°F16.4°C 59.5°F15.3°C 93% Calm Calm -- 29.64 in1003.7 mb - 0.00 in0.0 mm 0.00 in0.0 mm
02:02 AM 61.9°F16.6°C 59.9°F15.5°C 93% Calm Calm -- 29.64 in1003.7 mb - 0.00 in0.0 mm 0.00 in0.0 mm
01:57 AM 62.1°F16.7°C 60.1°F15.6°C 93% Calm Calm -- 29.64 in1003.7 mb - 0.00 in0.0 mm 0.00 in0.0 mm
01:52 AM 62.1°F16.7°C 59.7°F15.4°C 92% Calm Calm -- 29.64 in1003.7 mb - 0.00 in0.0 mm 0.00 in0.0 mm
01:47 AM 62.2°F16.8°C 59.9°F15.5°C 92% Calm Calm -- 29.64 in1003.7 mb - 0.00 in0.0 mm 0.00 in0.0 mm
01:42 AM 62.4°F16.9°C 60.1°F15.6°C 92% 0.9 mph SSE1.4 kmh SSE -- 29.64 in1003.7 mb - 0.00 in0.0 mm 0.00 in0.0 mm
01:37 AM 62.6°F17.0°C 60.3°F15.7°C 92% 0.9 mph SE1.4 kmh SE -- 29.64 in1003.7 mb - 0.00 in0.0 mm 0.00 in0.0 mm
01:32 AM 62.8°F17.1°C 60.1°F15.6°C 91% Calm Calm -- 29.64 in1003.7 mb - 0.00 in0.0 mm 0.00 in0.0 mm
01:27 AM 63.0°F17.2°C 60.6°F15.9°C 92% 0.9 mph SW1.4 kmh SW -- 29.64 in1003.7 mb - 0.00 in0.0 mm 0.00 in0.0 mm
01:22 AM 63.1°F17.3°C 60.8°F16.0°C 92% 2.0 mph SW3.2 kmh SW 0.9 mph1.4 kmh 29.65 in1004.1 mb - 0.00 in0.0 mm 0.00 in0.0 mm
01:17 AM 63.1°F17.3°C 60.8°F16.0°C 92% 2.0 mph SW3.2 kmh SW 2.9 mph4.7 kmh 29.65 in1004.1 mb - 0.00 in0.0 mm 0.00 in0.0 mm
01:12 AM 63.1°F17.3°C 60.8°F16.0°C 92% 2.9 mph S4.7 kmh S 2.0 mph3.2 kmh 29.65 in1004.1 mb - 0.00 in0.0 mm 0.00 in0.0 mm
01:07 AM 63.3°F17.4°C 61.0°F16.1°C 92% 2.9 mph SSW4.7 kmh SSW 2.0 mph3.2 kmh 29.65 in1004.1 mb - 0.00 in0.0 mm 0.00 in0.0 mm
01:02 AM 63.3°F17.4°C 61.0°F16.1°C 92% 4.0 mph S6.4 kmh S 4.9 mph7.9 kmh 29.65 in1004.1 mb - 0.00 in0.0 mm 0.00 in0.0 mm
12:57 AM 63.5°F17.5°C 61.2°F16.2°C 92% 4.0 mph S6.4 kmh S 8.1 mph13.0 kmh 29.65 in1004.1 mb - 0.00 in0.0 mm 0.00 in0.0 mm
12:52 AM 63.7°F17.6°C 61.7°F16.5°C 93% 4.0 mph SW6.4 kmh SW 4.0 mph6.4 kmh 29.65 in1004.1 mb - 0.00 in0.0 mm 0.00 in0.0 mm
12:47 AM 63.9°F17.7°C 61.9°F16.6°C 93% 4.9 mph SW7.9 kmh SW 4.9 mph7.9 kmh 29.65 in1004.1 mb - 0.00 in0.0 mm 0.00 in0.0 mm
12:42 AM 63.9°F17.7°C 61.9°F16.6°C 93% 4.0 mph SW6.4 kmh SW 4.0 mph6.4 kmh 29.65 in1004.1 mb - 0.00 in0.0 mm 0.00 in0.0 mm
12:37 AM 64.0°F17.8°C 62.1°F16.7°C 93% 4.0 mph SSW6.4 kmh SSW 4.0 mph6.4 kmh 29.66 in1004.4 mb - 0.00 in0.0 mm 0.00 in0.0 mm
12:32 AM 64.2°F17.9°C 61.9°F16.6°C 92% 4.0 mph SW6.4 kmh SW 4.9 mph7.9 kmh 29.66 in1004.4 mb - 0.00 in0.0 mm 0.00 in0.0 mm
12:27 AM 64.2°F17.9°C 61.9°F16.6°C 92% 2.9 mph SW4.7 kmh SW 2.9 mph4.7 kmh 29.67 in1004.7 mb - 0.00 in0.0 mm 0.00 in0.0 mm
12:22 AM 64.6°F18.1°C 62.4°F16.9°C 93% 2.9 mph S4.7 kmh S 2.9 mph4.7 kmh 29.67 in1004.7 mb - 0.00 in0.0 mm 0.00 in0.0 mm
12:17 AM 64.6°F18.1°C 62.4°F16.9°C 93% 2.9 mph WSW4.7 kmh WSW 2.0 mph3.2 kmh 29.67 in1004.7 mb - 0.00 in0.0 mm 0.00 in0.0 mm
12:12 AM 64.6°F18.1°C 62.4°F16.9°C 93% 2.0 mph S3.2 kmh S 2.0 mph3.2 kmh 29.68 in1005.1 mb - 0.00 in0.0 mm 0.00 in0.0 mm
12:07 AM 64.8°F18.2°C 62.4°F16.9°C 92% 2.0 mph WSW3.2 kmh WSW 0.9 mph1.4 kmh 29.68 in1005.1 mb - 0.00 in0.0 mm 0.00 in0.0 mm
12:02 AM 64.8°F18.2°C 62.4°F16.9°C 92% 4.0 mph SW6.4 kmh SW 2.0 mph3.2 kmh 29.68 in1005.1 mb - 0.00 in0.0 mm 0.46 in11.7 mm